Time;durP1;ratioP1;P1;durP2;ratioP2;P2;SDS_P1;SDS_P2;PMS_P1;PMS_P2;Temp;Humidity;BMP_temperature;BMP_pressure;BME280_temperature;BME280_humidity;BME280_pressure;Samples;Min_cycle;Max_cycle;Signal;HPM_P1;HPM_P2
2021/09/24 00:00:59;;;;;;;3.17;1.10;;;15.90;94.60;;;;;;10409498;28;20060;-56
2021/09/24 00:06:03;;;;;;;2.47;1.02;;;15.80;94.70;;;;;;10410500;28;20568;-57
2021/09/24 00:11:05;;;;;;;3.33;1.15;;;15.80;95.00;;;;;;10403064;28;20054;-57
2021/09/24 00:16:07;;;;;;;4.57;1.50;;;15.70;95.30;;;;;;10409242;28;20052;-56
2021/09/24 00:21:09;;;;;;;3.05;1.40;;;15.60;95.60;;;;;;10387862;28;20152;-56
2021/09/24 00:26:10;;;;;;;3.50;1.23;;;15.50;95.90;;;;;;10395283;28;20660;-56
2021/09/24 00:31:12;;;;;;;3.70;1.35;;;15.40;96.30;;;;;;10408307;28;20060;-57
2021/09/24 00:36:14;;;;;;;3.10;1.00;;;15.30;96.50;;;;;;10407335;28;20049;-56
2021/09/24 00:41:16;;;;;;;5.25;1.35;;;15.20;97.00;;;;;;10410681;28;20045;-57
2021/09/24 00:46:17;;;;;;;2.78;1.35;;;15.20;97.20;;;;;;10418157;28;20103;-57
2021/09/24 00:51:19;;;;;;;3.05;1.30;;;15.10;97.50;;;;;;10412096;28;20060;-57
2021/09/24 00:56:22;;;;;;;5.28;1.35;;;15.10;97.60;;;;;;10409108;28;20060;-57
2021/09/24 01:01:24;;;;;;;3.28;1.30;;;15.10;97.80;;;;;;10413282;28;20057;-57
2021/09/24 01:06:26;;;;;;;3.65;1.15;;;15.00;98.20;;;;;;10412013;28;20064;-57
2021/09/24 01:11:27;;;;;;;3.50;1.20;;;14.90;98.50;;;;;;10415135;28;20492;-57
2021/09/24 01:16:29;;;;;;;3.30;1.40;;;14.80;99.00;;;;;;10410773;28;20053;-57
2021/09/24 01:21:32;;;;;;;2.47;1.33;;;14.70;99.50;;;;;;10414041;28;20053;-57
2021/09/24 01:26:34;;;;;;;2.53;1.10;;;14.70;99.90;;;;;;10409189;28;20068;-57
2021/09/24 01:31:36;;;;;;;2.05;1.55;;;14.70;99.90;;;;;;10413019;28;20132;-56
2021/09/24 01:36:37;;;;;;;4.97;1.67;;;14.70;99.90;;;;;;10413491;28;20499;-58
2021/09/24 01:41:42;;;;;;;5.68;1.48;;;14.70;99.90;;;;;;10406128;28;20049;-59
2021/09/24 01:46:45;;;;;;;2.20;1.38;;;14.70;99.90;;;;;;10400898;28;20064;-57
2021/09/24 01:51:47;;;;;;;3.25;1.45;;;14.60;99.90;;;;;;10413121;28;20124;-58
2021/09/24 01:56:49;;;;;;;2.95;1.77;;;14.50;99.90;;;;;;10413802;28;20103;-58
2021/09/24 02:01:51;;;;;;;4.85;1.70;;;14.50;99.90;;;;;;10394878;28;20055;-56
2021/09/24 02:06:53;;;;;;;2.58;1.40;;;14.40;99.90;;;;;;10414894;28;20053;-59
2021/09/24 02:11:55;;;;;;;4.32;1.98;;;14.30;99.90;;;;;;10408523;28;20049;-57
2021/09/24 02:16:56;;;;;;;3.85;2.10;;;14.30;99.90;;;;;;10388993;28;20408;-57
2021/09/24 02:21:59;;;;;;;4.40;1.88;;;14.20;99.90;;;;;;10408789;28;20136;-57
2021/09/24 02:27:01;;;;;;;8.05;1.73;;;14.10;99.90;;;;;;10413884;28;20084;-56
2021/09/24 02:32:03;;;;;;;4.43;2.20;;;14.10;99.90;;;;;;10406788;28;20064;-57
2021/09/24 02:37:06;;;;;;;7.95;2.10;;;14.00;99.90;;;;;;10407574;28;20154;-58
2021/09/24 02:42:07;;;;;;;2.90;1.60;;;14.00;99.90;;;;;;10409436;28;20048;-58
2021/09/24 02:47:09;;;;;;;5.38;2.17;;;13.90;99.90;;;;;;10406334;28;20057;-58
2021/09/24 02:52:11;;;;;;;3.10;1.70;;;13.90;99.90;;;;;;10408136;28;20072;-58
2021/09/24 02:57:13;;;;;;;4.63;2.40;;;13.80;99.90;;;;;;10410602;28;20046;-59
2021/09/24 03:02:14;;;;;;;6.80;2.40;;;13.90;99.90;;;;;;10402808;28;20065;-59
2021/09/24 03:07:17;;;;;;;4.53;2.53;;;13.80;99.90;;;;;;10408112;28;20056;-58
2021/09/24 03:12:18;;;;;;;3.88;2.30;;;13.90;99.90;;;;;;10403638;28;20059;-58
2021/09/24 03:17:20;;;;;;;3.95;2.28;;;13.90;99.90;;;;;;10405773;28;20061;-59
2021/09/24 03:22:22;;;;;;;6.18;2.20;;;13.90;99.90;;;;;;10411268;28;20049;-58
2021/09/24 03:27:24;;;;;;;3.97;1.98;;;13.90;99.90;;;;;;10398293;28;20060;-59
2021/09/24 03:32:26;;;;;;;4.55;2.00;;;13.90;99.90;;;;;;10411884;28;20056;-58
2021/09/24 03:37:28;;;;;;;3.47;2.20;;;14.00;99.90;;;;;;10412778;28;20770;-59
2021/09/24 03:42:30;;;;;;;3.35;2.45;;;14.00;99.90;;;;;;10411563;28;20106;-58
2021/09/24 03:47:32;;;;;;;2.05;1.75;;;14.10;99.90;;;;;;10408546;28;20053;-58
2021/09/24 03:52:33;;;;;;;6.18;2.55;;;14.20;99.90;;;;;;10405308;28;20124;-58
2021/09/24 03:57:35;;;;;;;5.10;2.22;;;14.30;99.90;;;;;;10409034;28;20080;-59
2021/09/24 04:02:37;;;;;;;8.13;2.15;;;14.40;99.90;;;;;;10405877;28;20041;-59
2021/09/24 04:07:39;;;;;;;4.95;2.50;;;14.40;99.90;;;;;;10400577;28;20045;-58
2021/09/24 04:12:41;;;;;;;5.78;2.47;;;14.40;99.90;;;;;;10413734;28;20087;-58
2021/09/24 04:17:42;;;;;;;3.88;2.53;;;14.40;99.90;;;;;;10413073;28;20490;-58
2021/09/24 04:22:44;;;;;;;5.40;2.22;;;14.50;99.90;;;;;;10408862;28;20045;-59
2021/09/24 04:27:46;;;;;;;5.75;2.75;;;14.50;99.90;;;;;;10404393;28;20173;-58
2021/09/24 04:32:48;;;;;;;4.85;2.17;;;14.50;99.90;;;;;;10401265;28;20057;-59
2021/09/24 04:37:50;;;;;;;3.88;2.38;;;14.40;99.90;;;;;;10422913;28;20447;-61
2021/09/24 04:42:52;;;;;;;9.10;3.30;;;14.40;99.90;;;;;;10413740;28;20045;-59
2021/09/24 04:47:54;;;;;;;4.30;2.30;;;14.30;99.90;;;;;;10410424;28;20584;-57
2021/09/24 04:52:55;;;;;;;4.28;2.30;;;14.20;99.90;;;;;;10400601;28;20080;-58
2021/09/24 04:57:57;;;;;;;5.85;2.58;;;14.00;99.90;;;;;;10420517;28;20553;-57
2021/09/24 05:02:59;;;;;;;7.45;2.80;;;14.00;99.90;;;;;;10417350;28;20049;-57
2021/09/24 05:08:00;;;;;;;6.85;3.22;;;13.90;99.90;;;;;;10410239;28;20053;-59
2021/09/24 05:13:02;;;;;;;7.05;2.75;;;13.80;99.90;;;;;;10412769;28;20115;-59
2021/09/24 05:18:06;;;;;;;3.05;2.20;;;13.90;99.90;;;;;;10419785;28;20080;-62
2021/09/24 05:23:08;;;;;;;4.93;2.65;;;13.80;99.90;;;;;;10411887;28;20111;-60
2021/09/24 05:28:09;;;;;;;5.22;2.53;;;13.80;99.90;;;;;;10410608;28;20147;-60
2021/09/24 05:33:11;;;;;;;6.15;2.55;;;13.70;99.90;;;;;;10410433;28;20152;-60
2021/09/24 05:38:13;;;;;;;6.15;2.83;;;13.70;99.90;;;;;;10409152;28;20081;-60
2021/09/24 05:43:15;;;;;;;5.32;2.88;;;13.70;99.90;;;;;;10398034;28;20545;-60
2021/09/24 05:48:16;;;;;;;10.70;3.10;;;13.70;99.90;;;;;;10412747;28;20111;-59
2021/09/24 05:53:18;;;;;;;8.68;3.17;;;13.70;99.90;;;;;;10399595;28;20476;-60
2021/09/24 05:58:20;;;;;;;6.88;3.40;;;13.70;99.90;;;;;;10411755;28;20061;-61
2021/09/24 06:03:21;;;;;;;3.83;2.72;;;13.70;99.90;;;;;;10413930;28;20055;-61
2021/09/24 06:08:23;;;;;;;5.60;3.45;;;13.80;99.90;;;;;;10411166;28;20063;-61
2021/09/24 06:13:25;;;;;;;6.40;3.22;;;13.80;99.90;;;;;;10416194;28;20084;-61
2021/09/24 06:18:30;;;;;;;8.05;3.35;;;13.80;99.90;;;;;;10414085;28;20426;-61
2021/09/24 06:23:31;;;;;;;6.85;3.22;;;13.90;99.90;;;;;;10415880;28;20060;-61
2021/09/24 06:28:33;;;;;;;7.13;2.95;;;14.00;99.90;;;;;;10414453;28;20514;-61
2021/09/24 06:33:35;;;;;;;6.22;2.85;;;14.10;99.90;;;;;;10401590;28;20061;-60
2021/09/24 06:38:37;;;;;;;9.45;3.08;;;14.20;99.90;;;;;;10411001;28;20126;-60
2021/09/24 06:43:39;;;;;;;10.18;3.33;;;14.10;99.90;;;;;;10413402;28;20381;-60
2021/09/24 06:48:40;;;;;;;7.03;3.05;;;14.30;99.90;;;;;;10404978;28;20122;-60
2021/09/24 06:53:42;;;;;;;5.45;3.25;;;14.30;99.90;;;;;;10411415;28;20049;-60
2021/09/24 06:58:44;;;;;;;7.68;3.25;;;14.40;99.90;;;;;;10411960;28;20053;-61
2021/09/24 07:03:46;;;;;;;7.05;3.78;;;14.50;99.90;;;;;;10413713;28;20065;-60
2021/09/24 07:08:48;;;;;;;6.18;3.13;;;14.50;99.90;;;;;;10410258;28;20108;-60
2021/09/24 07:13:50;;;;;;;6.05;3.45;;;14.50;99.90;;;;;;10392327;28;20124;-60
2021/09/24 07:18:52;;;;;;;11.65;4.53;;;14.50;99.90;;;;;;10409195;28;20084;-60
2021/09/24 07:23:53;;;;;;;7.35;3.58;;;14.60;99.90;;;;;;10410418;28;20044;-62
2021/09/24 07:28:55;;;;;;;8.90;3.75;;;14.60;99.90;;;;;;10408295;28;20068;-60
2021/09/24 07:33:57;;;;;;;8.55;4.13;;;14.60;99.90;;;;;;10408915;28;20053;-60
2021/09/24 07:38:59;;;;;;;13.13;4.53;;;14.70;99.90;;;;;;10404297;28;20513;-60
2021/09/24 07:44:03;;;;;;;14.02;4.03;;;14.80;99.90;;;;;;10411316;28;20072;-60
2021/09/24 07:49:05;;;;;;;8.13;4.25;;;15.00;99.90;;;;;;10418706;28;20115;-61
2021/09/24 07:54:07;;;;;;;11.70;3.90;;;15.00;99.90;;;;;;10421643;28;20072;-60
2021/09/24 07:59:09;;;;;;;8.82;5.40;;;15.40;99.90;;;;;;10426946;28;20101;-60
2021/09/24 08:04:10;;;;;;;11.55;5.00;;;15.50;99.90;;;;;;10411746;28;20061;-60
2021/09/24 08:09:12;;;;;;;8.20;4.93;;;15.50;99.90;;;;;;10424970;28;20065;-60
2021/09/24 08:14:14;;;;;;;13.55;4.50;;;15.70;99.90;;;;;;10420461;28;20049;-60
2021/09/24 08:19:16;;;;;;;10.20;4.53;;;15.60;99.90;;;;;;10420726;28;20061;-60
2021/09/24 08:24:18;;;;;;;8.18;4.50;;;15.50;99.90;;;;;;10425610;28;20122;-61
2021/09/24 08:29:19;;;;;;;6.25;3.67;;;15.60;99.90;;;;;;10422177;28;20057;-61
2021/09/24 08:34:21;;;;;;;6.72;3.70;;;16.00;99.90;;;;;;10421850;28;20077;-61
2021/09/24 08:39:23;;;;;;;10.25;4.55;;;16.30;99.90;;;;;;10425202;28;20081;-61
2021/09/24 08:44:25;;;;;;;10.73;4.13;;;16.30;99.90;;;;;;10417059;28;20084;-61
2021/09/24 08:49:26;;;;;;;8.35;3.65;;;16.40;99.90;;;;;;10420497;28;20049;-61
2021/09/24 08:54:28;;;;;;;5.93;3.42;;;16.70;99.90;;;;;;10415744;28;20116;-61
2021/09/24 08:59:30;;;;;;;7.88;3.22;;;16.80;99.90;;;;;;10414528;28;22781;-61
2021/09/24 09:04:41;;;;;;;5.68;2.85;;;17.30;99.90;;;;;;10413031;28;20099;-61
2021/09/24 09:09:46;;;;;;;3.17;2.50;;;17.70;99.90;;;;;;10413390;28;20110;-60
2021/09/24 09:14:59;;;;;;;3.92;2.17;;;18.20;99.90;;;;;;10414343;28;20072;-61
2021/09/24 09:20:31;;;;;;;4.65;2.47;;;17.90;99.90;;;;;;10414882;28;20110;-61
2021/09/24 09:25:38;;;;;;;4.22;2.00;;;18.10;99.90;;;;;;10413359;28;20095;-61
2021/09/24 09:30:41;;;;;;;5.20;2.20;;;18.40;99.90;;;;;;10411857;28;20388;-61
2021/09/24 09:35:53;;;;;;;2.90;2.15;;;18.60;99.90;;;;;;10410113;28;20111;-61
2021/09/24 09:41:04;;;;;;;4.60;2.67;;;18.60;99.90;;;;;;10411960;28;20045;-61
2021/09/24 09:46:17;;;;;;;4.55;1.90;;;18.50;99.90;;;;;;10407966;28;20088;-61
2021/09/24 09:51:21;;;;;;;8.65;2.13;;;18.60;99.90;;;;;;10411722;28;20041;-61
2021/09/24 09:56:41;;;;;;;4.60;1.92;;;18.50;99.90;;;;;;10409066;28;20119;-61
2021/09/24 10:01:44;;;;;;;3.50;1.45;;;18.50;99.90;;;;;;10410333;28;20080;-61
2021/09/24 10:06:48;;;;;;;4.85;1.95;;;18.70;99.90;;;;;;10415299;28;20140;-61
2021/09/24 10:11:49;;;;;;;4.72;1.80;;;18.90;99.90;;;;;;10418166;28;20549;-61
2021/09/24 10:16:51;;;;;;;2.65;1.45;;;19.10;99.90;;;;;;10417440;28;20064;-61
2021/09/24 10:21:53;;;;;;;3.92;1.75;;;19.50;99.10;;;;;;10409695;28;20081;-61
2021/09/24 10:26:59;;;;;;;3.88;1.77;;;20.00;97.40;;;;;;10408907;28;20574;-61
2021/09/24 10:32:24;;;;;;;4.93;1.50;;;20.60;96.00;;;;;;10410480;28;25822;-61
2021/09/24 10:37:28;;;;;;;3.00;1.20;;;20.70;95.20;;;;;;10410559;28;20057;-61
2021/09/24 10:42:36;;;;;;;2.22;0.90;;;20.50;94.70;;;;;;10412686;28;20112;-60
2021/09/24 10:48:07;;;;;;;1.83;1.10;;;20.70;94.30;;;;;;10409782;28;20091;-60
2021/09/24 10:53:09;;;;;;;7.88;1.83;;;20.80;93.60;;;;;;10408755;28;20057;-60
2021/09/24 10:58:14;;;;;;;3.38;0.98;;;20.40;93.40;;;;;;10404632;28;20053;-60
2021/09/24 11:03:22;;;;;;;2.40;0.60;;;20.40;92.80;;;;;;10413780;28;20048;-60
2021/09/24 11:08:32;;;;;;;1.88;0.55;;;20.90;92.50;;;;;;10405488;28;20052;-60
2021/09/24 11:13:38;;;;;;;17.90;8.40;;;21.10;92.60;;;;;;10407566;28;20048;-59
2021/09/24 11:18:48;;;;;;;2.25;0.70;;;21.30;90.70;;;;;;10404502;28;20107;-60
2021/09/24 11:23:54;;;;;;;1.90;0.77;;;21.30;90.90;;;;;;10408439;28;20112;-59
2021/09/24 11:29:07;;;;;;;3.15;0.70;;;21.50;90.80;;;;;;10408629;28;20061;-60
2021/09/24 11:34:08;;;;;;;1.90;0.60;;;21.90;90.30;;;;;;10410934;28;20507;-60
2021/09/24 11:39:10;;;;;;;2.55;0.60;;;21.90;89.00;;;;;;10411390;28;20088;-60
2021/09/24 11:44:12;;;;;;;2.25;0.70;;;22.30;88.20;;;;;;10407899;28;20069;-60
2021/09/24 11:49:13;;;;;;;1.90;0.57;;;22.60;86.10;;;;;;10394119;28;20065;-60
2021/09/24 11:54:20;;;;;;;3.15;0.40;;;22.50;85.80;;;;;;10407163;28;20168;-60
2021/09/24 11:59:22;;;;;;;0.50;0.40;;;22.80;83.00;;;;;;10406105;28;20092;-60
2021/09/24 12:04:24;;;;;;;2.45;0.40;;;22.70;82.60;;;;;;10405158;28;20114;-62
2021/09/24 12:09:26;;;;;;;1.58;0.40;;;23.10;82.00;;;;;;10406542;28;20053;-62
2021/09/24 12:14:29;;;;;;;3.25;0.43;;;23.30;81.40;;;;;;10410063;28;20151;-63
2021/09/24 12:19:37;;;;;;;6.43;1.42;;;23.30;80.70;;;;;;10401555;28;20127;-62
2021/09/24 12:24:45;;;;;;;1.63;0.40;;;22.30;83.10;;;;;;10410347;28;20053;-66
2021/09/24 12:29:49;;;;;;;1.40;0.40;;;21.80;85.70;;;;;;10403264;28;20045;-69
2021/09/24 12:34:59;;;;;;;0.40;0.20;;;21.70;87.30;;;;;;10412871;28;20495;-68
2021/09/24 12:40:07;;;;;;;1.52;0.17;;;21.60;86.40;;;;;;10413190;28;20076;-61
2021/09/24 12:45:19;;;;;;;0.90;0.20;;;22.00;84.20;;;;;;10421526;28;20637;-61
2021/09/24 12:50:21;;;;;;;0.50;0.10;;;22.60;81.80;;;;;;10411617;28;20061;-61
2021/09/24 12:55:23;;;;;;;1.05;0.10;;;22.90;81.50;;;;;;10398279;28;20057;-61
2021/09/24 13:00:25;;;;;;;0.47;0.30;;;23.20;80.80;;;;;;10414001;28;20155;-61
2021/09/24 13:05:27;;;;;;;1.75;0.13;;;23.40;79.50;;;;;;10420305;28;20166;-61
2021/09/24 13:10:29;;;;;;;2.45;0.40;;;23.20;79.80;;;;;;10410927;28;20088;-61
2021/09/24 13:15:33;;;;;;;0.20;0.10;;;22.90;82.90;;;;;;10412183;28;20478;-61
2021/09/24 13:20:35;;;;;;;0.43;0.10;;;22.60;81.80;;;;;;10411733;28;20423;-61
2021/09/24 13:25:37;;;;;;;1.23;0.20;;;22.30;83.80;;;;;;10416975;28;20061;-61
2021/09/24 13:30:43;;;;;;;2.75;0.17;;;21.70;84.50;;;;;;10411501;28;20080;-61
2021/09/24 13:35:45;;;;;;;;;;;21.60;84.90;;;;;;10409363;28;20148;-61
2021/09/24 13:40:47;;;;;;;0.25;0.10;;;21.50;84.50;;;;;;10410215;28;19928;-61
2021/09/24 13:45:49;;;;;;;0.65;0.00;;;21.60;84.80;;;;;;10409382;28;20472;-61
2021/09/24 13:50:51;;;;;;;0.43;0.00;;;21.50;85.00;;;;;;10413508;28;20060;-61
2021/09/24 13:55:53;;;;;;;0.10;0.00;;;21.60;84.80;;;;;;10411686;28;20162;-61
2021/09/24 14:00:55;;;;;;;0.65;0.10;;;22.10;84.10;;;;;;10410442;28;20088;-61
2021/09/24 14:05:57;;;;;;;0.52;0.05;;;21.80;84.00;;;;;;10408408;28;20073;-65
2021/09/24 14:10:59;;;;;;;1.20;0.08;;;22.10;84.20;;;;;;10408913;28;20132;-61
2021/09/24 14:16:01;;;;;;;1.83;0.10;;;22.60;83.30;;;;;;10413502;28;20048;-61
2021/09/24 14:21:03;;;;;;;0.38;0.13;;;22.60;82.20;;;;;;10414123;28;20048;-61
2021/09/24 14:26:05;;;;;;;0.30;0.20;;;22.20;84.10;;;;;;10410935;28;20053;-61
2021/09/24 14:31:07;;;;;;;0.17;0.10;;;23.30;81.60;;;;;;10416075;28;20080;-61
2021/09/24 14:36:08;;;;;;;0.82;0.20;;;22.20;82.00;;;;;;10410154;28;20057;-61
2021/09/24 14:41:10;;;;;;;2.67;0.30;;;22.10;82.60;;;;;;10408547;28;20126;-61
2021/09/24 14:46:12;;;;;;;0.60;0.50;;;21.60;84.50;;;;;;10412210;28;20047;-60
2021/09/24 14:51:13;;;;;;;1.08;0.20;;;21.60;84.00;;;;;;10411762;28;20136;-60
2021/09/24 14:56:15;;;;;;;0.95;0.30;;;21.50;86.20;;;;;;10409373;28;20056;-60
2021/09/24 15:01:17;;;;;;;3.33;0.40;;;21.50;86.20;;;;;;10411033;28;20084;-60
2021/09/24 15:06:19;;;;;;;1.77;0.57;;;21.30;87.30;;;;;;10407159;28;20100;-60
2021/09/24 15:11:21;;;;;;;0.90;0.40;;;21.10;87.30;;;;;;10410930;28;20946;-61
2021/09/24 15:16:24;;;;;;;0.95;0.40;;;21.00;87.90;;;;;;10406588;28;20111;-61
2021/09/24 15:21:25;;;;;;;2.60;0.32;;;20.90;88.80;;;;;;10388717;28;20056;-61
2021/09/24 15:26:27;;;;;;;2.20;0.30;;;20.70;89.10;;;;;;10411573;28;20114;-62
2021/09/24 15:31:29;;;;;;;0.52;0.32;;;20.80;89.00;;;;;;10405342;28;20479;-60
2021/09/24 15:36:31;;;;;;;1.15;0.80;;;21.20;88.10;;;;;;10393006;28;20535;-67
2021/09/24 15:41:32;;;;;;;2.65;0.57;;;21.20;88.50;;;;;;10412093;28;20139;-65
2021/09/24 15:46:34;;;;;;;0.82;0.43;;;21.10;88.60;;;;;;10412004;28;20053;-65
2021/09/24 15:51:36;;;;;;;2.72;0.43;;;21.10;87.50;;;;;;10396729;28;20889;-66
2021/09/24 15:56:39;;;;;;;0.95;0.35;;;21.00;87.80;;;;;;10408242;28;20491;-65
2021/09/24 16:01:41;;;;;;;0.88;0.30;;;20.90;87.90;;;;;;10409576;28;20056;-66
2021/09/24 16:06:43;;;;;;;0.47;0.20;;;20.60;88.50;;;;;;10398112;28;20060;-65
2021/09/24 16:11:45;;;;;;;0.55;0.20;;;20.60;88.20;;;;;;10414118;28;20091;-66
2021/09/24 16:16:47;;;;;;;0.93;0.30;;;20.40;87.00;;;;;;10417178;28;20123;-64
2021/09/24 16:21:49;;;;;;;1.20;0.30;;;20.30;87.80;;;;;;10415653;28;20068;-62
2021/09/24 16:26:52;;;;;;;0.47;0.30;;;20.30;88.00;;;;;;10414123;28;20147;-62
2021/09/24 16:31:53;;;;;;;1.60;0.30;;;20.30;87.90;;;;;;10403404;28;20496;-63
2021/09/24 16:36:55;;;;;;;1.90;0.20;;;20.20;87.80;;;;;;10416090;28;23420;-61
2021/09/24 16:41:57;;;;;;;0.82;0.10;;;20.00;85.20;;;;;;10419755;28;20119;-62
2021/09/24 16:47:00;;;;;;;0.90;0.35;;;19.90;85.20;;;;;;10414567;28;20100;-58
2021/09/24 16:52:02;;;;;;;1.40;0.30;;;19.70;85.10;;;;;;10416933;28;20057;-58
2021/09/24 16:57:04;;;;;;;3.53;0.40;;;19.60;85.90;;;;;;10412581;28;20101;-58
2021/09/24 17:02:05;;;;;;;0.88;0.20;;;19.50;86.60;;;;;;10406820;28;20069;-58
2021/09/24 17:07:07;;;;;;;2.47;0.20;;;19.30;87.10;;;;;;10413161;28;20136;-58
2021/09/24 17:12:09;;;;;;;2.15;0.30;;;19.20;87.20;;;;;;10415733;28;20103;-59
2021/09/24 17:17:11;;;;;;;0.50;0.30;;;19.10;88.10;;;;;;10409282;28;20053;-59
2021/09/24 17:22:14;;;;;;;2.15;0.35;;;18.90;88.80;;;;;;10412150;28;20080;-59
2021/09/24 17:27:15;;;;;;;1.05;0.28;;;18.90;89.20;;;;;;10394945;28;20060;-58
2021/09/24 17:32:22;;;;;;;4.25;0.30;;;18.80;89.60;;;;;;10413217;28;20092;-59
2021/09/24 17:37:24;;;;;;;0.98;0.30;;;18.80;90.00;;;;;;10407665;28;20061;-58
2021/09/24 17:42:28;;;;;;;1.15;0.30;;;18.70;90.10;;;;;;10422098;28;20111;-58
2021/09/24 17:47:30;;;;;;;0.65;0.35;;;18.70;90.10;;;;;;10410920;28;20115;-57
2021/09/24 17:52:34;;;;;;;2.03;0.60;;;18.60;90.30;;;;;;10408938;28;20060;-56
2021/09/24 17:57:36;;;;;;;1.10;0.40;;;18.50;90.40;;;;;;10413064;28;20064;-56
2021/09/24 18:02:38;;;;;;;3.30;0.73;;;18.40;90.60;;;;;;10414530;28;20053;-57
2021/09/24 18:07:41;;;;;;;3.50;0.80;;;18.40;91.20;;;;;;10408492;28;20045;-58
2021/09/24 18:12:44;;;;;;;3.72;1.17;;;18.20;91.40;;;;;;10409432;28;20524;-57
2021/09/24 18:17:52;;;;;;;2.10;1.27;;;18.00;91.90;;;;;;10407957;28;20135;-56
2021/09/24 18:22:56;;;;;;;3.65;1.33;;;17.90;93.20;;;;;;10410780;28;20146;-55
2021/09/24 18:27:58;;;;;;;3.90;0.77;;;17.70;93.00;;;;;;10401423;28;20052;-57
2021/09/24 18:33:00;;;;;;;0.90;0.70;;;17.60;92.90;;;;;;10413430;28;20069;-56
2021/09/24 18:38:03;;;;;;;2.70;0.80;;;17.50;93.30;;;;;;10417490;28;20075;-57
2021/09/24 18:43:04;;;;;;;4.63;0.70;;;17.30;93.70;;;;;;10409390;28;20053;-56
2021/09/24 18:48:06;;;;;;;3.53;0.95;;;17.20;94.30;;;;;;10399973;28;20118;-55
2021/09/24 18:53:09;;;;;;;1.65;0.70;;;17.00;94.40;;;;;;10400251;28;20056;-55
2021/09/24 18:58:11;;;;;;;3.65;1.02;;;16.90;94.80;;;;;;10404303;28;20068;-56
2021/09/24 19:03:13;;;;;;;2.55;0.70;;;16.80;95.10;;;;;;10399444;28;20064;-56
2021/09/24 19:08:15;;;;;;;2.15;0.70;;;16.60;95.40;;;;;;10408406;28;20488;-57
2021/09/24 19:13:17;;;;;;;3.22;1.08;;;16.40;96.10;;;;;;10403219;28;20057;-56
2021/09/24 19:18:19;;;;;;;3.75;0.88;;;16.30;96.70;;;;;;10409025;28;20053;-57
2021/09/24 19:23:20;;;;;;;5.38;0.63;;;16.30;97.00;;;;;;10404270;28;20088;-58
2021/09/24 19:28:23;;;;;;;4.00;0.90;;;16.30;97.10;;;;;;10407841;28;20545;-55
2021/09/24 19:33:25;;;;;;;2.30;0.70;;;16.30;97.10;;;;;;10410555;28;20072;-56
2021/09/24 19:38:27;;;;;;;3.60;0.57;;;16.20;97.40;;;;;;10409162;28;20099;-56
2021/09/24 19:43:29;;;;;;;1.98;1.25;;;16.20;97.70;;;;;;10391193;28;20057;-57
2021/09/24 19:48:31;;;;;;;5.68;2.13;;;16.10;97.70;;;;;;10408040;28;20865;-56
2021/09/24 19:53:32;;;;;;;4.72;1.92;;;16.00;99.10;;;;;;10409682;28;23683;-57
2021/09/24 19:58:34;;;;;;;5.13;2.00;;;15.90;99.90;;;;;;10406034;28;20140;-56
2021/09/24 20:03:36;;;;;;;6.82;2.25;;;15.70;99.90;;;;;;10405126;28;20052;-57
2021/09/24 20:08:38;;;;;;;4.97;2.78;;;15.60;99.90;;;;;;10406507;28;20455;-56
2021/09/24 20:13:39;;;;;;;4.53;2.47;;;15.60;99.90;;;;;;10401437;28;20057;-56
2021/09/24 20:18:42;;;;;;;5.57;3.08;;;15.40;99.90;;;;;;10403954;28;20614;-58
2021/09/24 20:23:43;;;;;;;5.03;3.28;;;15.20;99.90;;;;;;10409589;28;20122;-55
2021/09/24 20:28:49;;;;;;;5.50;2.93;;;15.20;99.90;;;;;;10406152;28;20052;-57
2021/09/24 20:33:51;;;;;;;6.38;3.60;;;15.10;99.90;;;;;;10406231;28;20585;-57
2021/09/24 20:38:53;;;;;;;9.38;3.55;;;15.00;99.90;;;;;;10409701;28;20102;-56
2021/09/24 20:43:55;;;;;;;4.85;2.97;;;14.90;99.90;;;;;;10411887;28;20640;-56
2021/09/24 20:48:57;;;;;;;4.05;2.22;;;14.90;99.90;;;;;;10406542;28;20123;-57
2021/09/24 20:53:59;;;;;;;4.00;2.08;;;14.80;99.90;;;;;;10411806;28;20045;-57
2021/09/24 20:59:00;;;;;;;5.47;1.90;;;14.70;99.90;;;;;;10411003;28;20134;-54
2021/09/24 21:04:02;;;;;;;6.95;2.80;;;14.50;99.90;;;;;;10415201;28;20415;-57
2021/09/24 21:09:05;;;;;;;6.32;3.00;;;14.40;99.90;;;;;;10409926;28;20057;-55
2021/09/24 21:14:07;;;;;;;7.30;2.88;;;14.40;99.90;;;;;;10415151;28;20057;-56
2021/09/24 21:19:08;;;;;;;6.35;2.72;;;14.30;99.90;;;;;;10415067;28;20044;-56
2021/09/24 21:24:10;;;;;;;5.20;3.03;;;14.20;99.90;;;;;;10411525;28;20115;-55
2021/09/24 21:29:11;;;;;;;4.97;3.35;;;14.20;99.90;;;;;;10412904;28;20150;-56
2021/09/24 21:34:13;;;;;;;7.68;3.13;;;14.10;99.90;;;;;;10414793;28;20057;-56
2021/09/24 21:39:16;;;;;;;6.47;3.20;;;14.10;99.90;;;;;;10406811;28;20073;-56
2021/09/24 21:44:18;;;;;;;4.90;2.90;;;14.10;99.90;;;;;;10413041;28;20083;-58
2021/09/24 21:49:20;;;;;;;7.20;4.63;;;14.00;99.90;;;;;;10413536;28;20076;-56
2021/09/24 21:54:22;;;;;;;10.55;5.05;;;14.00;99.90;;;;;;10409151;28;20069;-58
2021/09/24 21:59:24;;;;;;;15.60;6.80;;;13.90;99.90;;;;;;10410874;28;20085;-58
2021/09/24 22:04:26;;;;;;;9.98;6.07;;;13.90;99.90;;;;;;10409366;28;20111;-57
2021/09/24 22:09:29;;;;;;;10.45;7.13;;;13.80;99.90;;;;;;10413217;28;20067;-56
2021/09/24 22:14:30;;;;;;;8.60;5.93;;;13.80;99.90;;;;;;10414505;28;20110;-56
2021/09/24 22:19:32;;;;;;;10.75;6.55;;;13.70;99.90;;;;;;10406472;28;20056;-56
2021/09/24 22:24:34;;;;;;;11.52;7.07;;;13.60;99.90;;;;;;10411927;28;20073;-59
2021/09/24 22:29:37;;;;;;;11.02;6.78;;;13.60;99.90;;;;;;10408388;28;20045;-56
2021/09/24 22:34:39;;;;;;;10.35;6.57;;;13.50;99.90;;;;;;10411223;28;20057;-56
2021/09/24 22:39:41;;;;;;;8.50;5.10;;;13.50;99.90;;;;;;10409125;28;20049;-57
2021/09/24 22:44:43;;;;;;;9.05;5.28;;;13.50;99.90;;;;;;10415699;28;20092;-58
2021/09/24 22:49:44;;;;;;;11.60;5.97;;;13.40;99.90;;;;;;10411290;28;20482;-58
2021/09/24 22:54:46;;;;;;;8.32;5.10;;;13.40;99.90;;;;;;10408608;28;20053;-57
2021/09/24 22:59:48;;;;;;;10.43;5.15;;;13.30;99.90;;;;;;10408870;28;20111;-58
2021/09/24 23:04:50;;;;;;;13.80;5.78;;;13.30;99.90;;;;;;10406625;28;20060;-58
2021/09/24 23:09:51;;;;;;;9.00;5.65;;;13.20;99.90;;;;;;10409593;28;20044;-58
2021/09/24 23:14:54;;;;;;;9.45;5.45;;;13.20;99.90;;;;;;10409839;28;20144;-58
2021/09/24 23:19:56;;;;;;;11.50;5.22;;;13.20;99.90;;;;;;10407391;28;20049;-56
2021/09/24 23:24:58;;;;;;;9.18;4.57;;;13.20;99.90;;;;;;10408783;28;20087;-56
2021/09/24 23:29:59;;;;;;;8.45;4.70;;;13.10;99.90;;;;;;10398464;28;20092;-58
2021/09/24 23:35:01;;;;;;;8.25;4.70;;;13.10;99.90;;;;;;10407265;28;20145;-56
2021/09/24 23:40:05;;;;;;;7.78;4.03;;;13.10;99.90;;;;;;10413720;28;20072;-58
2021/09/24 23:45:07;;;;;;;13.95;4.75;;;13.10;99.90;;;;;;10405631;28;20116;-57
2021/09/24 23:50:10;;;;;;;9.35;4.50;;;13.10;99.90;;;;;;10407472;28;20106;-58
2021/09/24 23:55:17;;;;;;;8.48;4.60;;;13.10;99.90;;;;;;10410548;28;20057;-58
